Ash Grove, Missouri
Current Conditions -  °F | °C
As of 1:52 PM on Friday 19 Dec 2014 (Local Time) from KSGF Reporting Station
Overcast Overcast  
Wind Chill: 39°   Ceiling: 600
Heat Index: 39°   Visibility: 7mi
Dew Point: 36°   Wind: 0mph
Humidity: 89%   Direction: NA
Pressure: 30.19"   Gusts: NA
Location:  37.32°N, 93.59°W
Report Text: KSGF 191952Z 00000KT 7SM OVC006 04/02 A3019 RMK AO2 CIG 004V009 SLP230 T00390022
Loading
Personal Weather Stations






























Interactive Weather Map New forecast layout! Learn more

10-Day Weather Forecast

Advertisements
Track Severe Weather on mobile